This is the latest recevied weather packets stored in our database for station/object OH6HPS. If no packets are shown the sender has not sent any weather packets the latest 1 day(s).
| Time | Temp. | Humidity | Pressure | Rain* | Wind** | Luminosity | Snow |
|---|---|---|---|---|---|---|---|
| 1778100346 | 0.56° C | 67% | 1013.9 hPa | 0 mm | - | 0 W/m² | - |
| 1778099745 | 0.56° C | 67% | 1013.9 hPa | 0 mm | - | 0 W/m² | - |
| 1778099144 | 1.11° C | 67% | 1013.9 hPa | 0 mm | - | 0 W/m² | - |
| 1778098545 | 1.67° C | 65% | 1014 hPa | 0 mm | - | 0 W/m² | - |
| 1778097345 | 2.22° C | 63% | 1014.1 hPa | 0 mm | - | 0 W/m² | - |
| 1778096743 | 2.78° C | 61% | 1014.1 hPa | 0 mm | - | 0 W/m² | - |
| 1778094944 | 4.44° C | 54% | 1013.9 hPa | 0 mm | - | 0 W/m² | - |
| 1778092544 | 6.11° C | 45% | 1013.5 hPa | 0 mm | - | 9 W/m² | - |
| 1778088941 | 10° C | 29% | 1013.2 hPa | 0 mm | - | 30 W/m² | - |
| 1778087141 | 10.56° C | 28% | 1013.2 hPa | 0 mm | - | 42 W/m² | - |
| 1778086540 | 10.56° C | 27% | 1013.3 hPa | 0 mm | - | 60 W/m² | - |
| 1778085340 | 11.11° C | 29% | 1013.1 hPa | 0 mm | - | 69 W/m² | - |
| 1778082938 | 12.22° C | 26% | 1013.1 hPa | 0 mm | - | 236 W/m² | - |
| 1778082338 | 12.22° C | 27% | 1013 hPa | 0 mm | - | 223 W/m² | - |
| 1778081137 | 12.78° C | 26% | 1013 hPa | 0 mm | - | 306 W/m² | - |
| 1778080537 | 12.78° C | 26% | 1013 hPa | 0 mm | - | 218 W/m² | - |
| 1778079938 | 12.78° C | 25% | 1012.9 hPa | 0 mm | - | 278 W/m² | - |
| 1778078738 | 13.33° C | 26% | 1013.1 hPa | 0 mm | - | 376 W/m² | - |
| 1778075135 | 13.33° C | 26% | 1013 hPa | 0 mm | - | 542 W/m² | - |
| 1778074536 | 13.33° C | 26% | 1013.1 hPa | 0 mm | - | 526 W/m² | - |
| 1778073935 | 13.33° C | 24% | 1013.1 hPa | 0 mm | - | 579 W/m² | - |
| 1778073334 | 13.33° C | 24% | 1013 hPa | 0 mm | - | 593 W/m² | - |
| 1778070934 | 13.33° C | 26% | 1013 hPa | 0 mm | - | 656 W/m² | - |
| 1778070333 | 13.33° C | 32% | 1013 hPa | 0 mm | - | 742 W/m² | - |
| 1778069733 | 12.22° C | 31% | 1012.9 hPa | 0 mm | - | 733 W/m² | - |
* Rain latest hour (hover to see other rain measurements)
** Current wind speed in m/s (hover to see current wind gust speed)